Time;durP1;ratioP1;P1;durP2;ratioP2;P2;SDS_P1;SDS_P2;PMS_P1;PMS_P2;Temp;Humidity;BMP_temperature;BMP_pressure;BME280_temperature;BME280_humidity;BME280_pressure;Samples;Min_cycle;Max_cycle;Signal;HPM_P1;HPM_P2
2022/01/16 00:00:15;;;;;;;;;;;3.50;99.90;;;;;;5124767;28;19974;-77
2022/01/16 00:05:26;;;;;;;;;;;3.50;99.90;;;;;;5121216;28;19930;-78
2022/01/16 00:07:54;;;;;;;;;;;3.40;99.90;;;;;;5118600;28;19924;-79
2022/01/16 00:10:21;;;;;;;;;;;3.40;99.90;;;;;;5118395;28;19924;-78
2022/01/16 00:12:49;;;;;;;;;;;3.50;99.90;;;;;;5118387;28;19923;-79
2022/01/16 00:15:16;;;;;;;;;;;3.50;99.90;;;;;;5118843;28;20023;-80
2022/01/16 00:17:52;;;;;;;;;;;3.40;99.90;;;;;;5118255;28;19953;-79
2022/01/16 00:20:19;;;;;;;;;;;3.40;99.90;;;;;;5116693;28;19955;-78
2022/01/16 00:22:47;;;;;;;;;;;3.40;99.90;;;;;;5115294;28;20447;-78
2022/01/16 00:25:15;;;;;;;;;;;3.40;99.90;;;;;;5122026;28;19928;-77
2022/01/16 00:27:42;;;;;;;;;;;3.30;99.90;;;;;;5121048;28;19924;-77
2022/01/16 00:30:09;;;;;;;;;;;3.40;99.90;;;;;;5119929;28;19923;-78
2022/01/16 00:32:36;;;;;;;;;;;3.40;99.90;;;;;;5120803;28;19970;-80
2022/01/16 00:35:03;;;;;;;;;;;3.30;99.90;;;;;;5120369;28;19923;-78
2022/01/16 00:37:29;;;;;;;;;;;3.40;99.90;;;;;;5120991;28;20305;-77
2022/01/16 00:39:56;;;;;;;;;;;3.40;99.90;;;;;;5120563;28;20410;-79
2022/01/16 00:42:24;;;;;;;;;;;3.40;99.90;;;;;;5121126;28;19972;-77
2022/01/16 00:44:50;;;;;;;;;;;3.40;99.90;;;;;;5121162;28;19971;-80
2022/01/16 00:47:17;;;;;;;;;;;3.40;99.90;;;;;;5121656;28;19996;-77
2022/01/16 00:49:44;;;;;;;;;;;3.40;99.90;;;;;;5120957;28;19923;-78
2022/01/16 00:52:11;;;;;;;;;;;3.40;99.90;;;;;;5120801;28;19923;-79
2022/01/16 00:54:38;;;;;;;;;;;3.40;99.90;;;;;;5119341;28;20031;-79
2022/01/16 00:57:05;;;;;;;;;;;3.40;99.90;;;;;;5119494;28;19970;-78
2022/01/16 00:59:33;;;;;;;;;;;3.40;99.90;;;;;;5118973;28;19924;-78
2022/01/16 01:02:00;;;;;;;;;;;3.40;99.90;;;;;;5119207;28;19977;-78
2022/01/16 01:04:27;;;;;;;;;;;3.40;99.90;;;;;;5119281;28;19946;-78
2022/01/16 01:06:53;;;;;;;;;;;3.40;99.90;;;;;;5118785;28;19934;-79
2022/01/16 01:09:20;;;;;;;;;;;3.40;99.90;;;;;;5126750;28;19923;-79
2022/01/16 01:11:49;;;;;;;;;;;3.40;99.90;;;;;;5128325;28;19924;-79
2022/01/16 01:14:23;;;;;;;;;;;3.30;99.90;;;;;;5122665;28;19924;-77
2022/01/16 01:16:53;;;;;;;;;;;3.30;99.90;;;;;;5127727;28;19945;-77
2022/01/16 01:19:21;;;;;;;;;;;3.20;99.90;;;;;;5127085;28;19962;-78
2022/01/16 01:21:48;;;;;;;;;;;3.20;99.90;;;;;;5120912;28;20394;-78
2022/01/16 01:24:14;;;;;;;;;;;3.20;99.90;;;;;;5118250;28;19924;-80
2022/01/16 01:26:48;;;;;;;;;;;3.20;99.90;;;;;;5118764;28;19973;-79
2022/01/16 01:29:18;;;;;;;;;;;3.10;99.90;;;;;;5118704;28;19930;-79
2022/01/16 01:31:44;;;;;;;;;;;3.10;99.90;;;;;;5120291;28;19924;-79
2022/01/16 01:34:12;;;;;;;;;;;3.10;99.90;;;;;;5119279;28;19928;-79
2022/01/16 01:36:39;;;;;;;;;;;3.10;99.90;;;;;;5117983;28;19977;-80
2022/01/16 01:39:05;;;;;;;;;;;3.00;99.90;;;;;;5118741;28;20365;-79
2022/01/16 01:41:32;;;;;;;;;;;3.00;99.90;;;;;;5119225;28;20010;-80
2022/01/16 01:52:12;;;;;;;;;;;2.80;99.90;;;;;;5140841;27;19914;-78
2022/01/16 01:54:38;;;;;;;;;;;2.80;99.90;;;;;;5132544;28;19923;-78
2022/01/16 01:57:05;;;;;;;;;;;2.80;99.90;;;;;;5130842;28;19924;-78
2022/01/16 01:59:31;;;;;;;;;;;2.80;99.90;;;;;;5127288;28;19963;-79
2022/01/16 02:01:58;;;;;;;;;;;2.90;99.90;;;;;;5120333;28;19924;-80
2022/01/16 02:04:24;;;;;;;;;;;2.90;99.90;;;;;;5121848;28;20361;-79
2022/01/16 02:06:52;;;;;;;;;;;2.90;99.90;;;;;;5119773;28;19924;-79
2022/01/16 02:09:18;;;;;;;;;;;2.90;99.90;;;;;;5118149;28;19975;-79
2022/01/16 02:11:45;;;;;;;;;;;3.10;99.90;;;;;;5118276;28;19967;-79
2022/01/16 02:14:23;;;;;;;;;;;2.90;99.90;;;;;;5118223;28;20359;-79
2022/01/16 02:28:04;;;;;;;;;;;2.90;99.90;;;;;;5117506;28;19941;-78
2022/01/16 02:30:58;;;;;;;;;;;2.90;99.90;;;;;;5118322;28;19939;-79
2022/01/16 02:35:59;;;;;;;;;;;2.90;99.90;;;;;;5129931;28;19924;-78
2022/01/16 02:38:27;;;;;;;;;;;2.80;99.90;;;;;;5119397;28;19924;-79
2022/01/16 02:40:58;;;;;;;;;;;2.80;99.90;;;;;;5118456;28;19969;-79
2022/01/16 02:43:30;;;;;;;;;;;2.80;99.90;;;;;;5117955;28;19930;-78
2022/01/16 02:46:35;;;;;;;;;;;2.80;99.90;;;;;;5117614;28;19936;-79
2022/01/16 02:48:48;;;;;;;;;;;2.70;99.90;;;;;;5117841;28;19931;-79
2022/01/16 02:51:16;;;;;;;;;;;2.70;99.90;;;;;;5118350;28;20005;-79
2022/01/16 02:53:43;;;;;;;;;;;2.70;99.90;;;;;;5126973;28;19978;-77
2022/01/16 02:56:10;;;;;;;;;;;2.70;99.90;;;;;;5128798;28;19924;-77
2022/01/16 02:58:36;;;;;;;;;;;2.60;99.90;;;;;;5120635;28;19984;-78
2022/01/16 03:01:03;;;;;;;;;;;2.60;99.90;;;;;;5118047;28;19976;-79
2022/01/16 03:03:29;;;;;;;;;;;2.50;99.90;;;;;;5118933;28;19931;-78
2022/01/16 03:05:56;;;;;;;;;;;2.50;99.90;;;;;;5118851;28;19959;-78
2022/01/16 03:08:22;;;;;;;;;;;2.60;99.90;;;;;;5117530;28;19963;-79
2022/01/16 03:11:07;;;;;;;;;;;2.40;99.90;;;;;;5117234;28;19959;-77
2022/01/16 03:13:33;;;;;;;;;;;2.40;99.90;;;;;;5117337;28;19930;-77
2022/01/16 03:16:00;;;;;;;;;;;2.40;99.90;;;;;;5116838;28;19931;-78
2022/01/16 03:24:10;;;;;;;;;;;2.10;99.90;;;;;;5075598;28;19974;-79
2022/01/16 03:26:37;;;;;;;;;;;2.10;99.90;;;;;;5099024;28;20378;-79
2022/01/16 03:29:04;;;;;;;;;;;2.10;99.90;;;;;;5131497;27;19911;-78
2022/01/16 03:31:30;;;;;;;;;;;2.10;99.90;;;;;;5139032;27;20041;-78
2022/01/16 03:33:57;;;;;;;;;;;2.00;99.90;;;;;;5129615;27;19924;-79
2022/01/16 03:36:23;;;;;;;;;;;2.00;99.90;;;;;;5117994;28;19993;-78
2022/01/16 03:38:50;;;;;;;;;;;2.00;99.90;;;;;;5120298;28;19971;-79
2022/01/16 03:41:16;;;;;;;;;;;2.00;99.90;;;;;;5127066;28;19928;-78
2022/01/16 03:43:44;;;;;;;;;;;2.00;99.90;;;;;;5125779;28;19924;-77
2022/01/16 03:46:10;;;;;;;;;;;1.90;99.90;;;;;;5122455;28;19924;-77
2022/01/16 03:48:37;;;;;;;;;;;1.80;99.90;;;;;;5117098;28;19967;-78
2022/01/16 03:51:03;;;;;;;;;;;1.90;99.90;;;;;;5117525;28;20056;-78
2022/01/16 03:53:30;;;;;;;;;;;1.80;99.90;;;;;;5117013;28;20367;-78
2022/01/16 03:55:56;;;;;;;;;;;1.70;99.90;;;;;;5140563;22;19959;-79
2022/01/16 03:58:23;;;;;;;;;;;1.70;99.90;;;;;;5122698;28;19923;-79
2022/01/16 04:00:50;;;;;;;;;;;1.70;99.90;;;;;;5125729;28;19951;-78
2022/01/16 04:03:17;;;;;;;;;;;1.70;99.90;;;;;;5125373;28;19931;-78
2022/01/16 04:05:43;;;;;;;;;;;1.70;99.90;;;;;;5124053;28;20298;-79
2022/01/16 04:08:10;;;;;;;;;;;1.60;99.90;;;;;;5123896;28;19924;-78
2022/01/16 04:10:36;;;;;;;;;;;1.60;99.90;;;;;;5130437;28;19928;-78
2022/01/16 04:13:03;;;;;;;;;;;1.60;99.90;;;;;;5125876;28;19951;-78
2022/01/16 04:15:33;;;;;;;;;;;1.70;99.90;;;;;;5125228;28;19932;-79
2022/01/16 04:18:02;;;;;;;;;;;1.60;99.90;;;;;;5124535;28;19923;-79
2022/01/16 04:20:28;;;;;;;;;;;1.60;99.90;;;;;;5121868;28;19924;-79
2022/01/16 04:22:55;;;;;;;;;;;1.60;99.90;;;;;;5130886;28;19924;-78
2022/01/16 04:25:21;;;;;;;;;;;1.60;99.90;;;;;;5127166;28;19923;-79
2022/01/16 04:27:48;;;;;;;;;;;1.50;99.90;;;;;;5123057;28;19924;-79
2022/01/16 04:30:14;;;;;;;;;;;1.50;99.90;;;;;;5122504;28;19977;-79
2022/01/16 04:32:41;;;;;;;;;;;1.40;99.90;;;;;;5134701;28;19912;-79
2022/01/16 04:35:09;;;;;;;;;;;1.40;99.90;;;;;;5135902;28;19990;-79
2022/01/16 04:37:36;;;;;;;;;;;1.40;99.90;;;;;;5124006;28;19931;-79
2022/01/16 04:40:04;;;;;;;;;;;1.40;99.90;;;;;;5121499;28;19935;-80
2022/01/16 04:45:15;;;;;;;;;;;1.40;99.90;;;;;;5121245;28;20409;-79
2022/01/16 04:47:41;;;;;;;;;;;1.30;99.90;;;;;;5120934;28;19930;-79
2022/01/16 04:50:12;;;;;;;;;;;1.40;99.90;;;;;;5121422;28;20374;-79
2022/01/16 04:52:39;;;;;;;;;;;1.30;99.90;;;;;;5121120;28;19923;-79
2022/01/16 04:55:07;;;;;;;;;;;1.30;99.90;;;;;;5120885;28;20297;-79
2022/01/16 04:57:33;;;;;;;;;;;1.30;99.90;;;;;;5120344;28;19924;-79
2022/01/16 05:00:00;;;;;;;;;;;1.30;99.90;;;;;;5120241;28;19945;-79
2022/01/16 05:02:26;;;;;;;;;;;1.30;99.90;;;;;;5123334;28;19953;-80
2022/01/16 05:04:53;;;;;;;;;;;1.30;99.90;;;;;;5126925;28;19924;-79
2022/01/16 05:07:21;;;;;;;;;;;1.20;99.90;;;;;;5121066;28;19931;-79
2022/01/16 05:09:47;;;;;;;;;;;1.20;99.90;;;;;;5120636;27;19966;-79
2022/01/16 05:12:24;;;;;;;;;;;1.20;99.90;;;;;;5120442;28;19971;-78
2022/01/16 05:17:35;;;;;;;;;;;1.10;99.90;;;;;;5121001;28;20416;-80
2022/01/16 05:20:01;;;;;;;;;;;1.10;99.90;;;;;;5120550;28;19977;-79
2022/01/16 05:22:29;;;;;;;;;;;1.00;99.90;;;;;;5120860;28;19965;-79
2022/01/16 05:24:57;;;;;;;;;;;1.00;99.90;;;;;;5120175;28;20294;-79
2022/01/16 05:27:23;;;;;;;;;;;1.00;99.90;;;;;;5120827;28;19955;-80
2022/01/16 05:29:50;;;;;;;;;;;1.00;99.90;;;;;;5121419;28;19924;-80
2022/01/16 05:32:16;;;;;;;;;;;1.00;99.90;;;;;;5120932;28;19975;-80
2022/01/16 05:34:43;;;;;;;;;;;1.00;99.90;;;;;;5120399;28;19923;-80
2022/01/16 05:37:09;;;;;;;;;;;1.00;99.90;;;;;;5120497;28;19949;-80
2022/01/16 05:39:38;;;;;;;;;;;1.00;99.90;;;;;;5120315;28;19995;-79
2022/01/16 05:42:06;;;;;;;;;;;0.90;99.90;;;;;;5121406;28;19924;-80
2022/01/16 05:44:32;;;;;;;;;;;0.90;99.90;;;;;;5130169;28;19924;-79
2022/01/16 05:47:02;;;;;;;;;;;0.90;99.90;;;;;;5131118;28;19923;-79
2022/01/16 05:49:28;;;;;;;;;;;0.80;99.90;;;;;;5126172;28;19931;-79
2022/01/16 05:51:55;;;;;;;;;;;0.80;99.90;;;;;;5121177;28;19949;-80
2022/01/16 05:54:21;;;;;;;;;;;0.80;99.90;;;;;;5120324;28;19923;-80
2022/01/16 05:56:49;;;;;;;;;;;0.80;99.90;;;;;;5119874;28;20363;-80
2022/01/16 05:59:15;;;;;;;;;;;0.80;99.90;;;;;;5120537;28;19928;-80
2022/01/16 06:01:42;;;;;;;;;;;0.80;99.90;;;;;;5121070;28;19946;-80
2022/01/16 06:04:08;;;;;;;;;;;0.80;99.90;;;;;;5128488;28;19927;-80
2022/01/16 06:06:35;;;;;;;;;;;0.80;99.90;;;;;;5129115;28;19945;-80
2022/01/16 06:09:01;;;;;;;;;;;0.80;99.90;;;;;;5129507;28;19946;-80
2022/01/16 06:11:28;;;;;;;;;;;0.70;99.90;;;;;;5132757;28;19973;-79
2022/01/16 06:13:55;;;;;;;;;;;0.70;99.90;;;;;;5133140;28;19938;-79
2022/01/16 06:16:22;;;;;;;;;;;0.70;99.90;;;;;;5131203;28;19924;-79
2022/01/16 06:18:48;;;;;;;;;;;0.60;99.90;;;;;;5132896;28;19912;-79
2022/01/16 06:21:15;;;;;;;;;;;0.50;99.90;;;;;;5134647;28;19924;-80
2022/01/16 06:23:41;;;;;;;;;;;0.70;99.90;;;;;;5136144;28;19924;-80
2022/01/16 06:26:09;;;;;;;;;;;0.60;99.90;;;;;;5134075;28;19945;-80
2022/01/16 06:28:35;;;;;;;;;;;0.50;99.90;;;;;;5131339;28;19931;-79
2022/01/16 06:31:03;;;;;;;;;;;0.60;99.90;;;;;;5127892;28;19969;-79
2022/01/16 06:33:29;;;;;;;;;;;0.60;99.90;;;;;;5133698;28;19930;-81
2022/01/16 06:35:56;;;;;;;;;;;0.60;99.90;;;;;;5129994;28;19946;-81
2022/01/16 06:38:22;;;;;;;;;;;0.50;99.90;;;;;;5122388;28;19976;-82
2022/01/16 06:40:49;;;;;;;;;;;0.60;99.90;;;;;;5120955;28;20429;-80
2022/01/16 06:43:15;;;;;;;;;;;0.50;99.90;;;;;;5119898;28;19996;-81
2022/01/16 06:45:41;;;;;;;;;;;0.50;99.90;;;;;;5120088;28;19924;-81
2022/01/16 06:48:09;;;;;;;;;;;0.50;99.90;;;;;;5120957;28;20297;-81
2022/01/16 06:50:36;;;;;;;;;;;0.50;99.90;;;;;;5119639;28;19924;-80
2022/01/16 06:53:02;;;;;;;;;;;0.50;99.90;;;;;;5119216;28;20295;-80
2022/01/16 06:55:29;;;;;;;;;;;0.50;99.90;;;;;;5119126;28;19970;-80
2022/01/16 06:57:55;;;;;;;;;;;0.50;99.90;;;;;;5118528;28;19970;-80
2022/01/16 07:00:22;;;;;;;;;;;0.50;99.90;;;;;;5119131;28;19955;-81
2022/01/16 07:02:48;;;;;;;;;;;0.50;99.90;;;;;;5118969;28;19968;-80
2022/01/16 07:05:16;;;;;;;;;;;0.50;99.90;;;;;;5118475;28;20367;-80
2022/01/16 07:07:43;;;;;;;;;;;0.50;99.90;;;;;;5119033;28;20355;-80
2022/01/16 07:10:09;;;;;;;;;;;0.50;99.90;;;;;;5119189;28;19948;-80
2022/01/16 07:12:36;;;;;;;;;;;0.50;99.90;;;;;;5123165;28;19945;-80
2022/01/16 07:15:02;;;;;;;;;;;0.50;99.90;;;;;;5117865;28;19924;-81
2022/01/16 07:17:29;;;;;;;;;;;0.60;99.90;;;;;;5118715;28;20407;-80
2022/01/16 07:19:55;;;;;;;;;;;0.60;99.90;;;;;;5117575;28;19924;-80
2022/01/16 07:22:23;;;;;;;;;;;0.50;99.90;;;;;;5117936;28;20390;-80
2022/01/16 07:24:50;;;;;;;;;;;0.50;99.90;;;;;;5117687;28;19924;-80
2022/01/16 07:27:17;;;;;;;;;;;0.50;99.90;;;;;;5118249;28;19924;-81
2022/01/16 07:29:43;;;;;;;;;;;0.50;99.90;;;;;;5118522;28;19931;-82
2022/01/16 07:32:10;;;;;;;;;;;0.40;99.90;;;;;;5117461;28;19923;-81
2022/01/16 07:34:36;;;;;;;;;;;0.40;99.90;;;;;;5121135;28;19923;-81
2022/01/16 07:37:02;;;;;;;;;;;0.40;99.90;;;;;;5123036;28;19966;-80
2022/01/16 07:39:30;;;;;;;;;;;0.40;99.90;;;;;;5122801;28;19962;-81
2022/01/16 07:41:57;;;;;;;;;;;0.40;99.90;;;;;;5129680;28;19923;-80
2022/01/16 07:44:23;;;;;;;;;;;0.30;99.90;;;;;;5134276;28;19924;-81
2022/01/16 07:46:50;;;;;;;;;;;0.40;99.90;;;;;;5124514;28;19924;-80
2022/01/16 07:49:16;;;;;;;;;;;0.40;99.90;;;;;;5129920;28;19935;-80
2022/01/16 07:51:42;;;;;;;;;;;0.40;99.90;;;;;;5133694;28;19924;-80
2022/01/16 07:54:09;;;;;;;;;;;0.50;99.90;;;;;;5133501;27;19928;-79
2022/01/16 07:56:37;;;;;;;;;;;0.40;99.90;;;;;;5133918;28;19924;-79
2022/01/16 07:59:03;;;;;;;;;;;0.50;99.90;;;;;;5133365;28;19924;-79
2022/01/16 08:01:30;;;;;;;;;;;0.50;99.90;;;;;;5133478;28;19923;-81
2022/01/16 08:03:56;;;;;;;;;;;0.50;99.90;;;;;;5133803;27;19924;-80
2022/01/16 08:06:23;;;;;;;;;;;0.60;99.90;;;;;;5133806;27;19931;-80
2022/01/16 08:08:49;;;;;;;;;;;0.60;99.90;;;;;;5132158;28;19931;-80
2022/01/16 08:11:15;;;;;;;;;;;0.60;99.90;;;;;;5130646;28;19924;-79
2022/01/16 08:13:43;;;;;;;;;;;0.60;99.90;;;;;;5132263;28;20009;-81
2022/01/16 08:16:10;;;;;;;;;;;0.70;99.90;;;;;;5129889;28;19923;-79
2022/01/16 08:18:36;;;;;;;;;;;0.60;99.90;;;;;;5123980;28;19923;-80
2022/01/16 08:21:03;;;;;;;;;;;0.70;99.90;;;;;;5123287;28;19989;-79
2022/01/16 08:23:29;;;;;;;;;;;0.70;99.90;;;;;;5123248;28;20018;-79
2022/01/16 08:25:56;;;;;;;;;;;0.70;99.90;;;;;;5122839;28;19924;-80
2022/01/16 08:28:22;;;;;;;;;;;0.80;99.90;;;;;;5123510;28;19963;-79
2022/01/16 08:30:50;;;;;;;;;;;0.70;99.90;;;;;;5124767;28;19948;-80
2022/01/16 08:33:17;;;;;;;;;;;0.70;99.90;;;;;;5124699;28;19923;-80
2022/01/16 08:35:43;;;;;;;;;;;0.80;99.90;;;;;;5132619;28;19924;-80
2022/01/16 08:38:10;;;;;;;;;;;0.80;99.90;;;;;;5126980;28;19924;-81
2022/01/16 08:40:36;;;;;;;;;;;0.90;99.90;;;;;;5124662;28;19924;-81
2022/01/16 08:43:08;;;;;;;;;;;0.60;99.90;;;;;;5124829;28;19924;-81
2022/01/16 08:45:35;;;;;;;;;;;0.90;99.90;;;;;;5128291;28;19983;-80
2022/01/16 08:48:03;;;;;;;;;;;0.90;99.90;;;;;;5126616;28;19931;-81
2022/01/16 08:50:31;;;;;;;;;;;1.00;99.90;;;;;;5131247;28;19924;-80
2022/01/16 08:52:57;;;;;;;;;;;1.00;99.90;;;;;;5134479;28;19949;-81
2022/01/16 08:55:24;;;;;;;;;;;1.00;99.90;;;;;;5132404;28;19931;-80
2022/01/16 08:57:50;;;;;;;;;;;1.00;99.90;;;;;;5134504;28;19931;-80
2022/01/16 09:00:17;;;;;;;;;;;1.10;99.90;;;;;;5137448;28;19924;-80
2022/01/16 09:02:43;;;;;;;;;;;1.10;99.90;;;;;;5138321;28;19930;-81
2022/01/16 09:05:12;;;;;;;;;;;1.50;99.90;;;;;;5136958;28;19930;-81
2022/01/16 09:07:38;;;;;;;;;;;1.10;99.90;;;;;;5132014;28;19927;-81
2022/01/16 09:10:05;;;;;;;;;;;1.10;99.90;;;;;;5126439;28;19923;-80
2022/01/16 09:12:33;;;;;;;;;;;1.10;99.90;;;;;;5125333;28;20411;-81
2022/01/16 09:14:59;;;;;;;;;;;1.10;99.90;;;;;;5123996;28;19924;-82
2022/01/16 09:17:26;;;;;;;;;;;1.10;99.90;;;;;;5135783;28;20290;-80
2022/01/16 09:19:52;;;;;;;;;;;1.20;99.90;;;;;;5139383;28;19991;-80
2022/01/16 09:22:20;;;;;;;;;;;1.30;99.90;;;;;;5139503;27;19922;-80
2022/01/16 09:24:47;;;;;;;;;;;1.50;99.90;;;;;;5140090;28;19946;-80
2022/01/16 09:27:13;;;;;;;;;;;1.40;99.90;;;;;;5139003;28;19924;-79
2022/01/16 09:29:40;;;;;;;;;;;1.40;99.90;;;;;;5139064;28;19907;-79
2022/01/16 09:32:07;;;;;;;;;;;1.50;99.90;;;;;;5124672;28;19924;-80
2022/01/16 09:34:33;;;;;;;;;;;1.50;99.90;;;;;;5124189;28;20449;-82
2022/01/16 09:37:02;;;;;;;;;;;1.60;99.90;;;;;;5123863;28;19924;-81
2022/01/16 09:39:30;;;;;;;;;;;1.60;99.90;;;;;;5126708;28;20465;-82
2022/01/16 09:41:56;;;;;;;;;;;1.60;99.90;;;;;;5121952;28;19973;-82
2022/01/16 09:44:23;;;;;;;;;;;1.60;99.90;;;;;;5123250;28;19947;-81
2022/01/16 09:46:49;;;;;;;;;;;1.30;99.90;;;;;;5125354;28;19976;-81
2022/01/16 09:49:16;;;;;;;;;;;1.40;99.90;;;;;;5129595;28;20036;-80
2022/01/16 09:51:42;;;;;;;;;;;1.70;99.90;;;;;;5123016;28;20386;-82
2022/01/16 09:54:09;;;;;;;;;;;1.50;99.90;;;;;;5122398;28;19932;-82
2022/01/16 09:56:36;;;;;;;;;;;2.10;99.90;;;;;;5142135;22;19923;-78
2022/01/16 09:59:03;;;;;;;;;;;1.40;99.90;;;;;;5120542;28;19955;-79
2022/01/16 10:01:30;;;;;;;;;;;1.50;99.90;;;;;;5120899;28;19963;-78
2022/01/16 10:03:56;;;;;;;;;;;1.80;99.90;;;;;;5117879;28;19968;-78
2022/01/16 10:06:24;;;;;;;;;;;1.90;99.90;;;;;;5123633;28;19935;-80
2022/01/16 10:08:52;;;;;;;;;;;1.90;99.90;;;;;;5119231;28;19983;-80
2022/01/16 10:11:22;;;;;;;;;;;2.00;99.90;;;;;;5118497;28;19928;-79
2022/01/16 10:13:57;;;;;;;;;;;2.00;99.90;;;;;;5126686;28;19984;-79
2022/01/16 10:16:28;;;;;;;;;;;2.10;99.90;;;;;;5125478;28;19977;-79
2022/01/16 10:18:54;;;;;;;;;;;2.10;99.90;;;;;;5122772;28;19930;-78
2022/01/16 10:21:44;;;;;;;;;;;2.20;99.90;;;;;;5128296;28;19924;-80
2022/01/16 10:24:24;;;;;;;;;;;2.10;99.90;;;;;;5104909;28;19924;-80
2022/01/16 10:27:10;;;;;;;;;;;2.10;99.90;;;;;;5121018;28;19923;-80
2022/01/16 10:29:39;;;;;;;;;;;2.10;99.90;;;;;;5119860;28;19924;-81
2022/01/16 10:32:13;;;;;;;;;;;2.10;99.90;;;;;;5119387;28;19959;-79
2022/01/16 10:34:40;;;;;;;;;;;2.10;99.90;;;;;;5119318;28;19949;-80
2022/01/16 10:37:18;;;;;;;;;;;2.10;99.90;;;;;;5120512;28;19924;-80
2022/01/16 10:39:51;;;;;;;;;;;2.10;99.90;;;;;;5123061;28;19997;-78
2022/01/16 10:42:17;;;;;;;;;;;2.10;99.90;;;;;;5120053;28;20393;-80
2022/01/16 10:44:45;;;;;;;;;;;2.10;99.90;;;;;;5121945;28;19924;-79
2022/01/16 10:47:28;;;;;;;;;;;2.10;99.90;;;;;;5118996;28;21621;-79
2022/01/16 10:49:58;;;;;;;;;;;2.10;99.90;;;;;;5119552;28;19924;-79
2022/01/16 10:52:24;;;;;;;;;;;2.20;99.90;;;;;;5119133;28;20006;-80
2022/01/16 10:54:51;;;;;;;;;;;2.10;99.90;;;;;;5117756;28;20393;-80
2022/01/16 10:57:19;;;;;;;;;;;2.10;99.90;;;;;;5117844;28;20038;-80
2022/01/16 10:59:47;;;;;;;;;;;2.10;99.90;;;;;;5116776;28;19958;-79
2022/01/16 11:02:13;;;;;;;;;;;2.10;99.90;;;;;;5117386;28;20385;-79
2022/01/16 11:04:40;;;;;;;;;;;2.10;99.90;;;;;;5116968;28;19967;-80
2022/01/16 11:07:06;;;;;;;;;;;1.90;99.90;;;;;;5120130;28;19923;-78
2022/01/16 11:09:33;;;;;;;;;;;2.00;99.90;;;;;;5124141;28;19932;-79
2022/01/16 11:12:00;;;;;;;;;;;1.90;99.90;;;;;;5121542;28;19931;-80
2022/01/16 11:14:27;;;;;;;;;;;1.90;99.90;;;;;;5118178;28;19969;-80
2022/01/16 11:16:55;;;;;;;;;;;1.90;99.90;;;;;;5117557;28;19934;-80
2022/01/16 11:19:23;;;;;;;;;;;2.00;99.90;;;;;;5116865;28;20354;-80
2022/01/16 11:21:52;;;;;;;;;;;2.00;99.90;;;;;;5117817;28;20328;-79
2022/01/16 11:24:33;;;;;;;;;;;2.10;99.90;;;;;;5117487;28;19970;-79
2022/01/16 11:27:00;;;;;;;;;;;2.10;99.90;;;;;;5117177;28;20022;-80
2022/01/16 11:29:27;;;;;;;;;;;2.10;99.90;;;;;;5117809;28;19924;-81
2022/01/16 11:31:56;;;;;;;;;;;2.20;99.90;;;;;;5121291;28;19927;-80
2022/01/16 11:34:22;;;;;;;;;;;2.70;99.90;;;;;;5123678;28;19923;-81
2022/01/16 11:36:49;;;;;;;;;;;2.10;99.90;;;;;;5124309;28;19924;-79
2022/01/16 11:39:15;;;;;;;;;;;2.00;99.90;;;;;;5126917;28;19963;-79
2022/01/16 11:41:50;;;;;;;;;;;2.10;99.90;;;;;;5126721;28;19928;-79
2022/01/16 11:44:23;;;;;;;;;;;2.20;99.90;;;;;;5123312;28;19923;-80
2022/01/16 11:46:50;;;;;;;;;;;2.20;99.90;;;;;;5122259;28;19924;-79
2022/01/16 11:49:31;;;;;;;;;;;2.20;99.90;;;;;;5129086;28;19924;-80
2022/01/16 11:52:03;;;;;;;;;;;2.20;99.90;;;;;;5130137;28;19923;-80
2022/01/16 11:54:30;;;;;;;;;;;2.30;99.90;;;;;;5125048;28;19930;-80
2022/01/16 11:56:58;;;;;;;;;;;2.20;99.90;;;;;;5118106;28;19949;-80
2022/01/16 11:59:26;;;;;;;;;;;2.40;99.90;;;;;;5118746;28;20404;-80
2022/01/16 12:01:53;;;;;;;;;;;2.30;99.90;;;;;;5117177;28;19973;-80
2022/01/16 12:04:37;;;;;;;;;;;2.40;99.90;;;;;;5118128;28;20351;-79
2022/01/16 12:07:27;;;;;;;;;;;2.40;99.90;;;;;;5079897;28;19989;-79
2022/01/16 12:09:57;;;;;;;;;;;2.50;99.90;;;;;;5123317;28;19924;-79
2022/01/16 12:12:36;;;;;;;;;;;2.50;99.90;;;;;;5124858;28;19924;-79
2022/01/16 12:15:04;;;;;;;;;;;2.60;99.90;;;;;;5124425;28;19924;-79
2022/01/16 12:17:32;;;;;;;;;;;2.70;99.90;;;;;;5124096;28;19990;-79
2022/01/16 12:19:59;;;;;;;;;;;2.70;99.90;;;;;;5127278;28;19923;-78
2022/01/16 12:22:42;;;;;;;;;;;2.70;99.90;;;;;;5133123;28;19949;-78
2022/01/16 12:25:10;;;;;;;;;;;2.70;99.90;;;;;;5141104;27;19911;-79
2022/01/16 12:27:54;;;;;;;;;;;2.60;99.90;;;;;;5142330;27;19934;-80
2022/01/16 12:30:26;;;;;;;;;;;2.60;99.90;;;;;;5125467;27;19923;-79
2022/01/16 12:33:00;;;;;;;;;;;2.60;99.90;;;;;;5126373;28;19930;-79
2022/01/16 12:35:50;;;;;;;;;;;2.70;99.90;;;;;;5126418;28;20382;-79
2022/01/16 12:38:19;;;;;;;;;;;2.70;99.90;;;;;;5125376;28;20323;-80
2022/01/16 12:40:47;;;;;;;;;;;2.70;99.90;;;;;;5126226;27;20000;-79
2022/01/16 12:43:20;;;;;;;;;;;2.70;99.90;;;;;;5126966;28;19992;-80
2022/01/16 12:45:47;;;;;;;;;;;2.80;99.90;;;;;;5129016;28;19924;-79
2022/01/16 12:48:14;;;;;;;;;;;2.80;99.90;;;;;;5127319;28;19924;-79
2022/01/16 12:50:40;;;;;;;;;;;2.80;99.90;;;;;;5127262;28;19927;-79
2022/01/16 12:53:07;;;;;;;;;;;2.80;99.90;;;;;;5126894;28;19924;-79
2022/01/16 12:55:35;;;;;;;;;;;2.80;99.90;;;;;;5126871;28;19923;-80
2022/01/16 12:58:14;;;;;;;;;;;2.90;99.90;;;;;;5127775;28;19942;-79
2022/01/16 13:00:55;;;;;;;;;;;2.90;99.90;;;;;;5123907;28;19931;-78
2022/01/16 13:03:24;;;;;;;;;;;2.90;99.90;;;;;;5125618;28;19959;-79
2022/01/16 13:05:50;;;;;;;;;;;3.00;99.90;;;;;;5128018;28;19923;-79
2022/01/16 13:08:17;;;;;;;;;;;2.90;99.90;;;;;;5128471;28;19973;-78
2022/01/16 13:10:45;;;;;;;;;;;2.90;99.90;;;;;;5128281;28;20447;-78
2022/01/16 13:13:11;;;;;;;;;;;2.90;99.90;;;;;;5127211;28;19924;-78
2022/01/16 13:15:38;;;;;;;;;;;3.00;99.90;;;;;;5126913;28;19924;-79
2022/01/16 13:18:09;;;;;;;;;;;3.00;99.90;;;;;;5129842;28;19928;-81
2022/01/16 13:20:35;;;;;;;;;;;3.00;99.90;;;;;;5125331;28;19924;-79
2022/01/16 13:23:02;;;;;;;;;;;3.00;99.90;;;;;;5126306;28;19923;-79
2022/01/16 13:25:30;;;;;;;;;;;3.00;99.90;;;;;;5128554;28;19924;-80
2022/01/16 13:28:00;;;;;;;;;;;3.10;99.90;;;;;;5128812;28;19924;-79
2022/01/16 13:30:29;;;;;;;;;;;3.00;99.90;;;;;;5129307;28;19932;-79
2022/01/16 13:33:07;;;;;;;;;;;3.10;99.90;;;;;;5130666;28;19923;-79
2022/01/16 13:35:35;;;;;;;;;;;3.40;99.90;;;;;;5129349;28;19928;-79
2022/01/16 13:38:03;;;;;;;;;;;3.20;99.90;;;;;;5130981;28;19946;-79
2022/01/16 13:40:30;;;;;;;;;;;3.10;99.90;;;;;;5129954;28;19924;-79
2022/01/16 13:43:05;;;;;;;;;;;3.20;99.90;;;;;;5129272;28;20284;-80
2022/01/16 13:45:36;;;;;;;;;;;3.20;99.90;;;;;;5128686;28;19918;-79
2022/01/16 13:48:04;;;;;;;;;;;3.20;99.90;;;;;;5127584;28;19924;-79
2022/01/16 13:50:32;;;;;;;;;;;3.20;99.90;;;;;;5127182;28;20018;-79
2022/01/16 13:52:59;;;;;;;;;;;3.30;99.90;;;;;;5127378;28;19931;-80
2022/01/16 13:55:26;;;;;;;;;;;3.20;99.90;;;;;;5131361;28;20010;-79
2022/01/16 13:57:53;;;;;;;;;;;3.30;99.90;;;;;;5127120;28;19974;-79
2022/01/16 14:00:21;;;;;;;;;;;3.20;99.90;;;;;;5126810;28;20310;-79
2022/01/16 14:02:49;;;;;;;;;;;3.20;99.90;;;;;;5127418;28;19923;-79
2022/01/16 14:05:23;;;;;;;;;;;3.20;99.90;;;;;;5128594;27;19924;-80
2022/01/16 14:07:50;;;;;;;;;;;3.30;99.90;;;;;;5129562;28;19996;-81
2022/01/16 14:10:31;;;;;;;;;;;3.30;99.90;;;;;;5130002;28;19924;-79
2022/01/16 14:12:58;;;;;;;;;;;3.30;99.90;;;;;;5130804;28;19924;-80
2022/01/16 14:15:24;;;;;;;;;;;3.30;99.90;;;;;;5133801;28;20271;-81
2022/01/16 14:18:05;;;;;;;;;;;3.30;99.90;;;;;;5131590;28;19923;-80
2022/01/16 14:20:49;;;;;;;;;;;3.30;99.90;;;;;;5128994;28;19924;-79
2022/01/16 14:23:16;;;;;;;;;;;3.30;99.90;;;;;;5130814;28;19970;-80
2022/01/16 14:25:42;;;;;;;;;;;3.30;99.90;;;;;;5130118;28;20018;-78
2022/01/16 14:28:09;;;;;;;;;;;3.30;99.90;;;;;;5128191;28;20301;-79
2022/01/16 14:30:36;;;;;;;;;;;3.40;99.90;;;;;;5128896;28;19951;-79
2022/01/16 14:33:03;;;;;;;;;;;3.30;99.90;;;;;;5128401;28;19924;-80
2022/01/16 14:35:30;;;;;;;;;;;3.30;99.90;;;;;;5131952;28;19931;-80
2022/01/16 14:37:57;;;;;;;;;;;3.40;99.90;;;;;;5127807;28;19924;-79
2022/01/16 14:40:23;;;;;;;;;;;3.40;99.90;;;;;;5128409;28;19930;-80
2022/01/16 14:42:57;;;;;;;;;;;3.40;99.90;;;;;;5129585;28;19923;-79
2022/01/16 14:45:25;;;;;;;;;;;3.40;99.90;;;;;;5129869;28;19923;-81
2022/01/16 14:47:52;;;;;;;;;;;3.40;99.90;;;;;;5128169;28;19931;-81
2022/01/16 14:50:20;;;;;;;;;;;3.40;99.90;;;;;;5128569;28;19923;-80
2022/01/16 14:52:47;;;;;;;;;;;3.50;99.90;;;;;;5127871;28;19924;-82
2022/01/16 14:55:16;;;;;;;;;;;3.50;99.90;;;;;;5127389;28;19923;-81
2022/01/16 14:57:42;;;;;;;;;;;3.50;99.90;;;;;;5130148;28;19924;-78
2022/01/16 15:00:09;;;;;;;;;;;3.50;99.90;;;;;;5130155;28;19912;-79
2022/01/16 15:02:37;;;;;;;;;;;3.50;99.90;;;;;;5128416;28;20463;-79
2022/01/16 15:05:04;;;;;;;;;;;3.50;99.90;;;;;;5128159;28;19924;-80
2022/01/16 15:07:32;;;;;;;;;;;3.60;99.90;;;;;;5132146;28;19923;-80
2022/01/16 15:09:58;;;;;;;;;;;3.60;99.90;;;;;;5131793;28;19929;-80
2022/01/16 15:12:25;;;;;;;;;;;3.60;99.90;;;;;;5132440;28;19935;-81